Time;durP1;ratioP1;P1;durP2;ratioP2;P2;SDS_P1;SDS_P2;PMS_P1;PMS_P2;Temp;Humidity;BMP_temperature;BMP_pressure;BME280_temperature;BME280_humidity;BME280_pressure;Samples;Min_cycle;Max_cycle;Signal;HPM_P1;HPM_P2
2022/08/09 00:01:35;;;;;;;4.72;1.90;;;17.50;99.90;;;;;;5065687;28;20024;-80
2022/08/09 00:04:02;;;;;;;4.53;1.67;;;17.50;99.90;;;;;;5066617;28;20155;-80
2022/08/09 00:06:27;;;;;;;2.92;1.50;;;17.50;99.90;;;;;;5083496;28;20024;-80
2022/08/09 00:08:54;;;;;;;2.95;1.33;;;17.50;99.90;;;;;;5085733;28;20032;-79
2022/08/09 00:11:20;;;;;;;3.38;1.50;;;17.40;99.90;;;;;;5109859;28;20022;-80
2022/08/09 00:13:46;;;;;;;2.80;1.80;;;17.40;99.90;;;;;;5097112;28;20054;-80
2022/08/09 00:16:12;;;;;;;3.13;1.65;;;17.40;99.90;;;;;;5081247;28;20024;-80
2022/08/09 00:18:38;;;;;;;2.28;1.40;;;17.40;99.90;;;;;;5084579;28;20075;-79
2022/08/09 00:21:06;;;;;;;3.83;1.80;;;17.30;99.90;;;;;;5083500;28;20357;-79
2022/08/09 00:23:32;;;;;;;1.67;1.50;;;17.30;99.90;;;;;;5082519;28;20026;-78
2022/08/09 00:25:58;;;;;;;3.67;1.63;;;17.30;99.90;;;;;;5081641;28;20056;-80
2022/08/09 00:28:24;;;;;;;2.72;1.80;;;17.30;99.90;;;;;;5084380;28;20032;-80
2022/08/09 00:30:51;;;;;;;4.00;1.70;;;17.20;99.90;;;;;;5086452;28;20054;-79
2022/08/09 00:33:17;;;;;;;2.83;1.52;;;17.20;99.90;;;;;;5060488;28;20033;-80
2022/08/09 00:35:42;;;;;;;6.35;1.83;;;17.20;99.90;;;;;;5065765;28;20027;-80
2022/08/09 00:38:11;;;;;;;2.00;1.35;;;17.20;99.90;;;;;;5082521;28;20016;-80
2022/08/09 00:40:38;;;;;;;4.38;1.80;;;17.20;99.90;;;;;;5064913;28;20196;-80
2022/08/09 00:43:04;;;;;;;2.75;1.60;;;17.10;99.90;;;;;;5082204;28;20489;-79
2022/08/09 00:45:30;;;;;;;3.63;1.52;;;17.10;99.90;;;;;;5065728;28;20107;-79
2022/08/09 00:47:55;;;;;;;3.30;1.40;;;17.10;99.90;;;;;;5066688;28;20043;-80
2022/08/09 00:50:22;;;;;;;6.53;1.83;;;17.10;99.90;;;;;;5085469;28;20012;-79
2022/08/09 00:52:48;;;;;;;2.72;1.58;;;17.10;99.90;;;;;;5098159;28;20016;-79
2022/08/09 00:55:14;;;;;;;1.33;1.23;;;17.10;99.90;;;;;;5098303;28;20047;-78
2022/08/09 00:57:40;;;;;;;2.58;1.50;;;17.10;99.90;;;;;;5115214;28;20047;-80
2022/08/09 01:00:08;;;;;;;3.45;1.55;;;17.00;99.90;;;;;;5097718;28;20031;-78
2022/08/09 01:02:57;;;;;;;2.72;1.40;;;17.00;99.90;;;;;;5087514;28;20040;-80
2022/08/09 01:05:32;;;;;;;2.33;1.50;;;17.00;99.90;;;;;;5067100;28;20044;-79
2022/08/09 01:08:10;;;;;;;3.13;1.90;;;17.00;99.90;;;;;;5063912;28;20020;-80
2022/08/09 01:10:51;;;;;;;2.25;1.50;;;17.00;99.90;;;;;;5099169;28;20063;-78
2022/08/09 01:13:31;;;;;;;2.65;1.50;;;17.00;99.90;;;;;;5080459;28;20046;-80
2022/08/09 01:15:59;;;;;;;3.78;1.60;;;16.90;99.90;;;;;;5064540;28;20028;-80
2022/08/09 01:18:29;;;;;;;2.45;1.40;;;16.90;99.90;;;;;;5082451;28;20103;-78
2022/08/09 01:21:01;;;;;;;3.28;1.70;;;16.90;99.90;;;;;;5064849;28;20024;-80
2022/08/09 01:23:40;;;;;;;3.78;2.30;;;16.90;99.90;;;;;;5062596;28;20027;-80
2022/08/09 01:26:34;;;;;;;3.40;1.55;;;16.90;99.90;;;;;;5066056;28;20029;-79
2022/08/09 01:29:02;;;;;;;2.05;1.55;;;16.80;99.90;;;;;;5074709;28;20032;-80
2022/08/09 01:31:30;;;;;;;3.00;1.40;;;16.80;99.90;;;;;;5079888;28;20028;-79
2022/08/09 01:34:01;;;;;;;2.72;1.80;;;16.70;99.90;;;;;;5077315;28;20080;-79
2022/08/09 01:36:29;;;;;;;3.40;1.88;;;16.70;99.90;;;;;;5077486;28;20031;-80
2022/08/09 01:38:56;;;;;;;4.40;2.15;;;16.70;99.90;;;;;;5094733;28;20016;-80
2022/08/09 01:41:35;;;;;;;3.50;2.00;;;16.70;99.90;;;;;;5115037;28;20055;-79
2022/08/09 01:44:04;;;;;;;2.85;1.50;;;16.70;99.90;;;;;;5095836;28;20012;-79
2022/08/09 01:46:31;;;;;;;2.83;1.67;;;16.60;99.90;;;;;;5097774;28;20038;-79
2022/08/09 01:49:00;;;;;;;3.28;1.77;;;16.60;99.90;;;;;;5115002;28;20024;-79
2022/08/09 01:51:28;;;;;;;3.75;2.00;;;16.60;99.90;;;;;;5095822;28;20025;-79
2022/08/09 01:53:56;;;;;;;4.15;1.90;;;16.60;99.90;;;;;;5100105;28;20043;-80
2022/08/09 01:56:23;;;;;;;4.35;1.75;;;16.60;99.90;;;;;;5097094;28;20039;-80
2022/08/09 01:58:51;;;;;;;2.80;1.70;;;16.60;99.90;;;;;;5080476;28;20031;-80
2022/08/09 02:01:18;;;;;;;4.47;2.00;;;16.60;99.90;;;;;;5064567;28;20483;-80
2022/08/09 02:03:46;;;;;;;3.65;2.00;;;16.50;99.90;;;;;;5081262;28;20028;-80
2022/08/09 02:06:13;;;;;;;2.90;1.83;;;16.50;99.90;;;;;;5079531;28;20049;-80
2022/08/09 02:08:42;;;;;;;4.72;1.90;;;16.50;99.90;;;;;;5097015;28;20036;-81
2022/08/09 02:11:11;;;;;;;2.33;1.60;;;16.50;99.90;;;;;;5081152;28;20024;-80
2022/08/09 02:13:37;;;;;;;3.03;2.03;;;16.50;99.90;;;;;;5080014;28;20072;-80
2022/08/09 02:16:06;;;;;;;3.78;1.98;;;16.50;99.90;;;;;;5080020;28;20906;-80
2022/08/09 02:18:34;;;;;;;3.17;2.13;;;16.40;99.90;;;;;;5080800;28;20028;-79
2022/08/09 02:21:19;;;;;;;2.97;1.73;;;16.40;99.90;;;;;;5080624;28;20084;-81
2022/08/09 02:23:51;;;;;;;3.25;2.33;;;16.40;99.90;;;;;;5102391;28;20028;-80
2022/08/09 02:26:17;;;;;;;;;;;16.40;99.90;;;;;;5089825;28;20016;-80
2022/08/09 02:28:47;;;;;;;2.33;1.80;;;16.30;99.90;;;;;;5080911;28;19912;-80
2022/08/09 02:31:29;;;;;;;4.72;2.22;;;16.30;99.90;;;;;;5079685;28;20039;-80
2022/08/09 02:33:59;;;;;;;3.72;2.22;;;16.30;99.90;;;;;;5080272;28;20077;-80
2022/08/09 02:36:36;;;;;;;5.45;2.47;;;16.30;99.90;;;;;;5083150;28;20028;-79
2022/08/09 02:39:05;;;;;;;4.88;2.47;;;16.30;99.90;;;;;;5082897;28;20032;-81
2022/08/09 02:41:43;;;;;;;4.40;2.72;;;16.30;99.90;;;;;;5083468;28;20058;-81
2022/08/09 02:44:15;;;;;;;3.78;2.28;;;16.20;99.90;;;;;;5084825;28;20028;-81
2022/08/09 02:46:43;;;;;;;5.53;2.22;;;16.20;99.90;;;;;;5102890;28;20024;-80
2022/08/09 02:49:12;;;;;;;4.25;1.98;;;16.20;99.90;;;;;;5067876;28;20059;-80
2022/08/09 02:51:40;;;;;;;4.53;2.17;;;16.20;99.90;;;;;;5068181;28;20027;-79
2022/08/09 02:54:08;;;;;;;3.83;2.30;;;16.20;99.90;;;;;;5085051;28;20032;-80
2022/08/09 02:56:35;;;;;;;3.53;2.38;;;16.20;99.90;;;;;;5103157;28;20058;-79
2022/08/09 02:59:04;;;;;;;4.38;2.67;;;16.20;99.90;;;;;;5084758;28;20028;-79
2022/08/09 03:01:31;;;;;;;3.25;2.33;;;16.20;99.90;;;;;;5066831;28;20024;-80
2022/08/09 03:03:58;;;;;;;3.53;2.45;;;16.20;99.90;;;;;;5067656;28;20240;-79
2022/08/09 03:06:25;;;;;;;3.47;2.28;;;16.10;99.90;;;;;;5083770;28;20093;-79
2022/08/09 03:08:52;;;;;;;3.42;2.40;;;16.10;99.90;;;;;;5085079;28;20078;-80
2022/08/09 03:11:21;;;;;;;3.65;1.88;;;16.10;99.90;;;;;;5086306;28;20028;-80
2022/08/09 03:13:47;;;;;;;3.90;2.30;;;16.10;99.90;;;;;;5065721;28;20120;-79
2022/08/09 03:16:17;;;;;;;3.67;2.55;;;16.00;99.90;;;;;;5103918;28;20028;-80
2022/08/09 03:18:46;;;;;;;3.97;2.13;;;16.00;99.90;;;;;;5067295;28;20024;-79
2022/08/09 03:21:15;;;;;;;3.72;2.05;;;16.00;99.90;;;;;;5085037;28;20029;-78
2022/08/09 03:23:45;;;;;;;6.32;2.42;;;16.00;99.90;;;;;;5103091;28;20020;-77
2022/08/09 03:26:13;;;;;;;4.63;2.38;;;15.90;99.90;;;;;;5069011;28;20019;-78
2022/08/09 03:28:39;;;;;;;3.30;2.60;;;15.90;99.90;;;;;;5069158;28;20032;-78
2022/08/09 03:31:05;;;;;;;3.22;2.30;;;15.90;99.90;;;;;;5066664;28;20034;-78
2022/08/09 03:33:33;;;;;;;5.03;2.17;;;15.90;99.90;;;;;;5104297;28;20051;-78
2022/08/09 03:35:59;;;;;;;6.70;2.40;;;15.90;99.90;;;;;;5070961;28;20047;-78
2022/08/09 03:38:25;;;;;;;4.95;2.95;;;15.90;99.90;;;;;;5084307;28;20024;-78
2022/08/09 03:40:51;;;;;;;4.75;2.78;;;15.90;99.90;;;;;;5082964;28;20042;-78
2022/08/09 03:43:16;;;;;;;4.05;2.50;;;15.80;99.90;;;;;;5068717;28;20047;-80
2022/08/09 03:45:42;;;;;;;6.28;2.30;;;15.80;99.90;;;;;;5102245;28;20039;-78
2022/08/09 03:48:08;;;;;;;6.18;2.70;;;15.80;99.90;;;;;;5083952;28;20031;-79
2022/08/09 03:50:36;;;;;;;6.55;3.15;;;15.80;99.90;;;;;;5083528;28;20035;-77
2022/08/09 03:53:04;;;;;;;5.88;2.88;;;15.80;99.90;;;;;;5085001;28;20028;-79
2022/08/09 03:55:31;;;;;;;4.43;2.53;;;15.80;99.90;;;;;;5101681;28;20020;-78
2022/08/09 03:57:57;;;;;;;6.43;3.20;;;15.80;99.90;;;;;;5066995;28;20362;-79
2022/08/09 04:00:23;;;;;;;4.53;3.15;;;15.70;99.90;;;;;;5081403;28;20036;-79
2022/08/09 04:02:50;;;;;;;4.97;2.95;;;15.70;99.90;;;;;;5085983;28;20028;-79
2022/08/09 04:05:16;;;;;;;5.10;2.58;;;15.70;99.90;;;;;;5084326;28;20281;-80
2022/08/09 04:07:41;;;;;;;5.00;2.75;;;15.70;99.90;;;;;;5101215;28;20039;-80
2022/08/09 04:10:07;;;;;;;5.78;3.00;;;15.70;99.90;;;;;;5083265;28;20484;-79
2022/08/09 04:12:46;;;;;;;5.72;3.72;;;15.70;99.90;;;;;;5082477;28;20032;-80
2022/08/09 04:15:14;;;;;;;5.68;3.28;;;15.70;99.90;;;;;;5082467;28;20048;-80
2022/08/09 04:17:41;;;;;;;2.67;2.10;;;15.70;99.90;;;;;;5101611;28;20088;-80
2022/08/09 04:20:08;;;;;;;5.00;3.20;;;15.90;99.90;;;;;;5099318;28;20024;-80
2022/08/09 04:22:34;;;;;;;5.00;3.45;;;16.10;99.90;;;;;;5081400;28;20471;-81
2022/08/09 04:25:02;;;;;;;7.25;3.63;;;15.90;99.90;;;;;;5092695;28;20043;-79
2022/08/09 04:27:27;;;;;;;5.47;3.25;;;15.80;99.90;;;;;;5116909;28;20088;-80
2022/08/09 04:29:53;;;;;;;8.40;4.03;;;15.80;99.90;;;;;;5100511;28;20036;-79
2022/08/09 04:32:19;;;;;;;7.43;3.92;;;15.70;99.90;;;;;;5100164;28;20024;-79
2022/08/09 04:34:45;;;;;;;6.15;3.47;;;15.70;99.90;;;;;;5115871;28;20066;-79
2022/08/09 04:37:10;;;;;;;6.95;3.90;;;15.70;99.90;;;;;;5083448;28;20028;-79
2022/08/09 04:39:36;;;;;;;8.15;4.35;;;15.70;99.90;;;;;;5082555;28;20495;-79
2022/08/09 04:42:02;;;;;;;5.88;3.80;;;15.70;99.90;;;;;;5083167;28;20475;-81
2022/08/09 04:44:28;;;;;;;5.38;3.38;;;15.70;99.90;;;;;;5083045;28;20313;-77
2022/08/09 04:46:53;;;;;;;6.43;4.00;;;15.70;99.90;;;;;;5101207;28;20133;-78
2022/08/09 04:49:19;;;;;;;7.60;3.63;;;15.70;99.90;;;;;;5091565;28;20039;-78
2022/08/09 04:51:45;;;;;;;8.70;3.67;;;15.70;99.90;;;;;;5079129;28;20315;-79
2022/08/09 04:54:11;;;;;;;7.82;3.88;;;15.70;99.90;;;;;;5080038;28;20032;-78
2022/08/09 04:56:36;;;;;;;8.07;3.80;;;15.70;99.90;;;;;;5095190;28;20039;-79
2022/08/09 04:59:02;;;;;;;5.43;3.97;;;15.80;99.90;;;;;;5070779;28;20458;-79
2022/08/09 05:01:28;;;;;;;6.80;4.00;;;15.80;99.90;;;;;;5082592;28;20067;-79
2022/08/09 05:03:54;;;;;;;7.00;3.85;;;15.80;99.90;;;;;;5066947;28;20032;-80
2022/08/09 05:06:19;;;;;;;6.80;3.92;;;15.90;99.90;;;;;;5083166;28;20023;-77
2022/08/09 05:08:45;;;;;;;5.20;4.10;;;15.90;99.90;;;;;;5064716;28;20039;-79
2022/08/09 05:11:11;;;;;;;5.35;3.97;;;15.90;99.90;;;;;;5064908;28;20060;-79
2022/08/09 05:13:37;;;;;;;6.82;4.15;;;15.90;99.90;;;;;;5080392;28;20194;-79
2022/08/09 05:16:02;;;;;;;4.93;3.60;;;15.90;99.90;;;;;;5066666;28;20031;-79
2022/08/09 05:18:29;;;;;;;8.77;4.20;;;15.90;99.90;;;;;;5099893;28;20598;-79
2022/08/09 05:20:59;;;;;;;6.97;4.05;;;15.90;99.90;;;;;;5099702;28;20106;-80
2022/08/09 05:23:24;;;;;;;8.23;4.47;;;15.90;99.90;;;;;;5081917;28;20103;-79
2022/08/09 05:25:50;;;;;;;6.43;4.40;;;16.00;99.90;;;;;;5071519;28;20020;-79
2022/08/09 05:28:17;;;;;;;7.53;4.68;;;15.90;99.90;;;;;;5090029;28;20149;-78
2022/08/09 05:30:43;;;;;;;7.20;4.97;;;16.00;99.90;;;;;;5082420;28;20105;-79
2022/08/09 05:33:09;;;;;;;8.57;4.70;;;16.00;99.90;;;;;;5081710;28;20020;-79
2022/08/09 05:35:35;;;;;;;8.13;4.82;;;16.00;99.90;;;;;;5081634;28;20028;-80
2022/08/09 05:38:01;;;;;;;8.07;3.95;;;16.00;99.90;;;;;;5081190;28;20035;-79
2022/08/09 05:40:27;;;;;;;6.15;4.10;;;16.00;99.90;;;;;;5082027;28;20032;-78
2022/08/09 05:42:54;;;;;;;7.43;4.68;;;16.10;99.90;;;;;;5063934;28;20024;-79
2022/08/09 05:45:20;;;;;;;6.40;4.78;;;16.10;99.90;;;;;;5083527;28;20024;-79
2022/08/09 05:47:46;;;;;;;6.82;3.78;;;16.10;99.90;;;;;;5082617;28;20031;-79
2022/08/09 05:50:11;;;;;;;8.40;4.78;;;16.10;99.90;;;;;;5093098;28;20035;-79
2022/08/09 05:52:38;;;;;;;7.35;3.83;;;16.20;99.90;;;;;;5088570;28;20035;-79
2022/08/09 05:55:04;;;;;;;5.55;3.75;;;16.40;99.90;;;;;;5063827;28;20039;-79
2022/08/09 05:57:30;;;;;;;7.35;4.68;;;16.40;99.90;;;;;;5101428;28;20106;-79
2022/08/09 05:59:56;;;;;;;8.23;4.40;;;16.40;99.90;;;;;;5064478;28;20032;-80
2022/08/09 06:02:22;;;;;;;5.60;3.97;;;16.40;99.90;;;;;;5078772;28;20020;-80
2022/08/09 06:04:47;;;;;;;6.65;4.35;;;16.40;99.90;;;;;;5063942;28;20456;-79
2022/08/09 06:07:13;;;;;;;6.38;4.00;;;16.50;99.90;;;;;;5081129;28;20043;-78
2022/08/09 06:09:39;;;;;;;13.48;6.90;;;16.50;99.90;;;;;;5081132;28;20043;-79
2022/08/09 06:12:04;;;;;;;14.52;6.80;;;16.50;99.90;;;;;;5080016;28;20028;-78
2022/08/09 06:14:30;;;;;;;9.50;5.07;;;16.60;99.90;;;;;;5084181;28;20024;-79
2022/08/09 06:16:56;;;;;;;5.65;4.47;;;16.60;99.90;;;;;;5075093;28;20023;-78
2022/08/09 06:19:22;;;;;;;7.55;4.70;;;16.70;99.90;;;;;;5078411;28;20121;-79
2022/08/09 06:21:47;;;;;;;7.32;4.10;;;16.70;99.90;;;;;;5112579;28;20008;-77
2022/08/09 06:24:13;;;;;;;9.85;4.18;;;16.70;99.90;;;;;;5096294;28;20035;-78
2022/08/09 06:26:40;;;;;;;5.45;4.00;;;16.80;99.90;;;;;;5079667;28;20055;-78
2022/08/09 06:29:08;;;;;;;7.07;3.60;;;16.80;99.90;;;;;;5096248;28;20180;-77
2022/08/09 06:31:35;;;;;;;5.78;4.00;;;16.90;99.90;;;;;;5109243;28;20032;-78
2022/08/09 06:34:02;;;;;;;8.45;3.58;;;16.90;99.90;;;;;;5064509;28;20558;-78
2022/08/09 06:36:28;;;;;;;7.25;4.10;;;16.90;99.90;;;;;;5064551;28;20020;-79
2022/08/09 06:38:54;;;;;;;5.47;3.78;;;17.00;99.90;;;;;;5081092;28;20054;-79
2022/08/09 06:41:19;;;;;;;7.35;4.13;;;17.00;99.90;;;;;;5080035;28;20422;-79
2022/08/09 06:43:48;;;;;;;7.63;3.67;;;17.10;99.90;;;;;;5098800;28;20029;-79
2022/08/09 06:46:15;;;;;;;4.97;3.55;;;17.10;99.90;;;;;;5080296;28;20507;-78
2022/08/09 06:48:41;;;;;;;6.15;3.85;;;17.20;99.90;;;;;;5081037;28;20102;-79
2022/08/09 06:51:10;;;;;;;5.40;3.20;;;17.20;99.90;;;;;;5098480;28;20031;-79
2022/08/09 06:53:36;;;;;;;7.28;4.03;;;17.30;99.90;;;;;;5063653;28;20027;-78
2022/08/09 06:56:03;;;;;;;5.93;3.15;;;17.30;99.90;;;;;;5099338;28;20024;-79
2022/08/09 06:58:29;;;;;;;5.03;3.65;;;17.40;99.90;;;;;;5083336;28;20020;-78
2022/08/09 07:00:55;;;;;;;7.18;3.25;;;17.40;99.90;;;;;;5086352;28;20008;-78
2022/08/09 07:03:22;;;;;;;7.13;3.45;;;17.50;99.90;;;;;;5101825;28;20539;-80
2022/08/09 07:05:48;;;;;;;5.22;3.17;;;17.50;99.90;;;;;;5082021;28;20546;-79
2022/08/09 07:08:13;;;;;;;6.30;3.60;;;17.60;99.90;;;;;;5080477;28;20024;-79
2022/08/09 07:10:39;;;;;;;3.05;2.35;;;17.60;99.90;;;;;;5078463;28;20593;-79
2022/08/09 07:13:05;;;;;;;5.82;2.78;;;17.70;99.90;;;;;;5098510;28;20037;-79
2022/08/09 07:15:31;;;;;;;5.47;3.20;;;17.70;99.90;;;;;;5080251;28;20048;-79
2022/08/09 07:17:58;;;;;;;4.43;2.88;;;17.80;99.90;;;;;;5099122;28;20036;-79
2022/08/09 07:20:26;;;;;;;5.15;2.90;;;17.80;99.90;;;;;;5062901;28;20020;-80
2022/08/09 07:22:53;;;;;;;6.70;3.35;;;17.80;99.90;;;;;;5066162;28;20024;-81
2022/08/09 07:25:19;;;;;;;6.82;2.83;;;17.90;99.90;;;;;;5084053;28;20048;-79
2022/08/09 07:27:45;;;;;;;4.97;2.80;;;18.00;99.90;;;;;;5083221;28;20063;-79
2022/08/09 07:30:13;;;;;;;3.95;2.45;;;18.00;99.90;;;;;;5081917;28;20028;-82
2022/08/09 07:32:42;;;;;;;4.65;2.63;;;18.00;99.90;;;;;;5084220;28;20031;-81
2022/08/09 07:35:10;;;;;;;3.15;2.03;;;18.10;99.90;;;;;;5080470;28;20028;-80
2022/08/09 07:37:36;;;;;;;6.40;2.10;;;18.20;99.90;;;;;;5084379;28;20035;-80
2022/08/09 07:40:03;;;;;;;4.85;2.60;;;18.20;99.90;;;;;;5084237;28;20035;-79
2022/08/09 07:42:29;;;;;;;8.55;3.22;;;18.30;99.90;;;;;;5068730;28;20056;-78
2022/08/09 07:44:54;;;;;;;5.25;2.72;;;18.30;99.90;;;;;;5101385;28;20395;-78
2022/08/09 07:47:21;;;;;;;3.38;2.45;;;18.40;99.90;;;;;;5100244;28;20024;-81
2022/08/09 07:49:47;;;;;;;3.60;2.30;;;18.40;99.90;;;;;;5079714;28;20031;-80
2022/08/09 07:52:13;;;;;;;4.50;2.60;;;18.50;99.90;;;;;;5096669;28;20061;-77
2022/08/09 07:54:39;;;;;;;4.47;2.38;;;18.50;99.90;;;;;;5116661;28;20537;-78
2022/08/09 07:57:05;;;;;;;8.98;3.22;;;18.60;99.90;;;;;;5100501;28;20027;-78
2022/08/09 07:59:31;;;;;;;5.50;2.30;;;18.60;99.90;;;;;;5092775;28;20035;-79
2022/08/09 08:01:57;;;;;;;2.47;1.75;;;18.70;99.90;;;;;;5082604;28;20027;-78
2022/08/09 08:04:23;;;;;;;5.72;2.33;;;18.70;99.90;;;;;;5083170;28;20031;-79
2022/08/09 08:06:49;;;;;;;7.47;2.47;;;18.80;99.90;;;;;;5082204;28;20476;-80
2022/08/09 08:09:16;;;;;;;5.88;2.40;;;18.90;99.90;;;;;;5082002;28;20028;-79
2022/08/09 08:11:42;;;;;;;5.38;1.95;;;18.90;99.90;;;;;;5085636;28;20491;-79
2022/08/09 08:14:08;;;;;;;2.05;1.70;;;19.00;99.90;;;;;;5083919;28;20083;-81
2022/08/09 08:16:34;;;;;;;2.38;1.60;;;19.10;99.90;;;;;;5066252;28;20044;-79
2022/08/09 08:19:00;;;;;;;7.07;2.58;;;19.10;99.90;;;;;;5098382;28;20024;-79
2022/08/09 08:21:25;;;;;;;3.78;1.80;;;19.20;99.90;;;;;;5066151;28;20020;-79
2022/08/09 08:23:51;;;;;;;4.40;1.80;;;19.30;99.90;;;;;;5083507;28;20447;-79
2022/08/09 08:26:17;;;;;;;5.13;2.47;;;19.30;99.90;;;;;;5100140;28;20077;-79
2022/08/09 08:28:42;;;;;;;3.00;1.73;;;19.30;99.90;;;;;;5084782;28;20041;-78
2022/08/09 08:31:08;;;;;;;3.67;1.77;;;19.30;99.90;;;;;;5089958;28;20024;-79
2022/08/09 08:33:34;;;;;;;6.05;1.60;;;19.40;99.90;;;;;;5070672;28;20496;-80
2022/08/09 08:36:00;;;;;;;3.15;1.60;;;19.40;99.90;;;;;;5082642;28;20024;-78
2022/08/09 08:38:27;;;;;;;4.20;1.50;;;19.40;99.90;;;;;;5082712;28;20025;-79
2022/08/09 08:40:54;;;;;;;3.75;1.45;;;19.50;99.90;;;;;;5099442;28;20205;-79
2022/08/09 08:43:20;;;;;;;1.60;1.30;;;19.50;99.90;;;;;;5080588;28;20069;-80
2022/08/09 08:46:02;;;;;;;2.65;1.40;;;19.60;99.90;;;;;;5081949;28;20031;-80
2022/08/09 08:48:28;;;;;;;4.18;1.50;;;19.70;99.90;;;;;;5079774;28;20115;-77
2022/08/09 08:50:54;;;;;;;3.35;1.48;;;19.70;99.90;;;;;;5065912;28;20058;-79
2022/08/09 08:53:20;;;;;;;4.82;1.38;;;19.90;99.90;;;;;;5083068;28;20095;-79
2022/08/09 08:55:46;;;;;;;3.30;1.92;;;20.00;99.90;;;;;;5083858;28;20020;-78
2022/08/09 08:58:11;;;;;;;4.00;1.58;;;20.10;99.90;;;;;;5077227;28;20042;-80
2022/08/09 09:00:41;;;;;;;4.05;1.60;;;20.10;99.90;;;;;;5079472;28;20032;-80
2022/08/09 09:03:10;;;;;;;1.52;1.33;;;20.20;99.90;;;;;;5096561;28;20028;-81
2022/08/09 09:05:37;;;;;;;3.00;1.63;;;20.30;99.90;;;;;;5064660;28;20094;-81
2022/08/09 09:08:04;;;;;;;3.88;1.40;;;20.40;99.90;;;;;;5058471;28;20032;-80
2022/08/09 09:10:31;;;;;;;3.10;1.33;;;20.50;99.90;;;;;;5063994;28;20049;-79
2022/08/09 09:12:58;;;;;;;4.93;1.50;;;20.60;99.90;;;;;;5101377;28;20049;-80
2022/08/09 09:15:24;;;;;;;3.60;1.75;;;20.70;99.90;;;;;;5084624;28;20035;-81
2022/08/09 09:17:49;;;;;;;2.03;1.30;;;20.70;99.90;;;;;;5081849;28;20024;-81
2022/08/09 09:20:15;;;;;;;5.03;1.50;;;20.80;99.90;;;;;;5087699;28;20024;-81
2022/08/09 09:22:58;;;;;;;4.05;1.58;;;20.90;99.90;;;;;;5083028;28;20083;-80
2022/08/09 09:25:42;;;;;;;4.95;1.80;;;20.90;99.90;;;;;;5093658;28;20072;-78
2022/08/09 09:28:10;;;;;;;1.67;1.15;;;20.90;99.90;;;;;;5075755;22;20137;-75
2022/08/09 09:30:56;;;;;;;3.58;1.20;;;20.90;99.90;;;;;;5024017;28;20102;-76
2022/08/09 09:33:33;;;;;;;4.68;2.00;;;21.10;99.90;;;;;;5026640;28;20536;-75
2022/08/09 09:36:05;;;;;;;1.80;1.63;;;21.20;99.90;;;;;;5009683;28;20064;-74
2022/08/09 09:38:55;;;;;;;2.58;1.50;;;21.40;99.90;;;;;;5007071;28;20025;-78
2022/08/09 09:41:27;;;;;;;2.17;1.10;;;21.60;99.90;;;;;;5022785;28;20032;-76
2022/08/09 09:43:58;;;;;;;2.15;1.40;;;21.70;99.90;;;;;;5008636;28;20018;-75
2022/08/09 09:46:36;;;;;;;5.90;1.50;;;21.70;99.90;;;;;;4990348;28;20025;-75
2022/08/09 09:49:09;;;;;;;5.72;1.63;;;21.60;99.90;;;;;;5004750;28;20471;-76
2022/08/09 09:51:35;;;;;;;5.47;1.30;;;21.70;99.90;;;;;;4990535;28;20412;-74
2022/08/09 09:54:02;;;;;;;4.50;1.33;;;21.70;99.90;;;;;;5008794;28;20548;-74
2022/08/09 09:56:32;;;;;;;2.65;1.65;;;21.70;99.90;;;;;;5021820;28;20222;-75
2022/08/09 09:58:58;;;;;;;2.00;1.10;;;21.70;99.90;;;;;;5004373;28;20036;-76
2022/08/09 10:01:24;;;;;;;2.83;1.20;;;21.60;99.90;;;;;;5006505;28;20021;-75
2022/08/09 10:03:52;;;;;;;2.53;1.25;;;21.70;99.90;;;;;;5007375;28;20117;-78
2022/08/09 10:06:18;;;;;;;4.28;1.40;;;21.70;99.90;;;;;;4990826;28;20527;-75
2022/08/09 10:08:46;;;;;;;6.13;1.98;;;21.80;99.90;;;;;;5005392;28;20481;-74
2022/08/09 10:11:15;;;;;;;2.38;1.20;;;21.80;99.90;;;;;;5023073;28;20026;-75
2022/08/09 10:13:41;;;;;;;2.13;1.20;;;21.90;99.90;;;;;;5005040;28;20075;-75
2022/08/09 10:16:07;;;;;;;3.58;1.20;;;21.90;99.90;;;;;;5006385;28;20432;-74
2022/08/09 10:18:33;;;;;;;2.30;1.10;;;22.00;99.90;;;;;;5023047;28;20461;-74
2022/08/09 10:21:09;;;;;;;3.95;1.15;;;21.90;99.90;;;;;;5022152;28;20501;-74
2022/08/09 10:23:36;;;;;;;3.53;1.40;;;22.10;99.90;;;;;;4993254;28;20018;-75
2022/08/09 10:26:02;;;;;;;2.28;1.30;;;22.30;99.90;;;;;;5022632;28;20032;-74
2022/08/09 10:28:30;;;;;;;3.63;1.60;;;22.40;99.90;;;;;;5022259;28;20049;-74
2022/08/09 10:30:58;;;;;;;3.92;1.77;;;22.30;99.80;;;;;;5006055;28;20038;-74
2022/08/09 10:33:24;;;;;;;2.75;1.38;;;22.30;99.80;;;;;;5009818;28;20034;-76
2022/08/09 10:35:51;;;;;;;2.75;1.33;;;22.30;99.90;;;;;;5006502;28;20068;-75
2022/08/09 10:38:18;;;;;;;2.72;1.20;;;22.30;99.40;;;;;;5024980;28;20051;-77
2022/08/09 10:40:44;;;;;;;1.40;1.13;;;22.30;99.10;;;;;;5006379;28;20026;-75
2022/08/09 10:43:12;;;;;;;2.47;1.40;;;22.40;99.00;;;;;;5008707;28;20022;-75
2022/08/09 10:45:42;;;;;;;2.10;1.00;;;22.40;98.90;;;;;;5023098;28;20024;-74
2022/08/09 10:48:14;;;;;;;;;;;22.50;99.00;;;;;;4990637;28;20412;-74
2022/08/09 10:51:08;;;;;;;2.42;1.13;;;22.50;98.90;;;;;;5006750;28;19984;-75
2022/08/09 10:54:01;;;;;;;2.90;1.10;;;22.60;99.00;;;;;;5023519;28;20037;-75
2022/08/09 10:56:32;;;;;;;3.00;1.50;;;22.70;98.90;;;;;;5024484;28;20025;-74
2022/08/09 10:59:00;;;;;;;3.70;1.10;;;22.70;98.80;;;;;;5009835;28;20057;-74
2022/08/09 11:01:32;;;;;;;2.42;1.50;;;22.80;98.70;;;;;;5010359;28;20104;-75
2022/08/09 11:04:29;;;;;;;4.07;1.48;;;22.90;98.50;;;;;;5027400;28;20037;-75
2022/08/09 11:06:57;;;;;;;2.90;1.08;;;22.80;98.50;;;;;;5027663;28;20029;-75
2022/08/09 11:09:38;;;;;;;1.80;1.50;;;22.80;98.30;;;;;;5025320;28;20017;-74
2022/08/09 11:12:17;;;;;;;;;;;22.90;98.00;;;;;;5027209;28;20104;-74
2022/08/09 11:14:47;;;;;;;1.98;1.35;;;23.00;98.00;;;;;;5011114;28;19972;-75
2022/08/09 11:17:13;;;;;;;2.08;1.00;;;23.10;98.50;;;;;;5011490;28;20033;-74
2022/08/09 11:20:09;;;;;;;3.80;1.48;;;23.00;97.40;;;;;;5010298;28;20035;-75
2022/08/09 11:22:42;;;;;;;1.35;1.10;;;23.30;97.00;;;;;;5010718;28;20045;-74
2022/08/09 11:25:21;;;;;;;3.50;1.50;;;23.70;96.80;;;;;;5035498;28;20023;-76
2022/08/09 11:27:54;;;;;;;2.58;1.35;;;24.30;96.40;;;;;;5013841;28;20030;-75
2022/08/09 11:30:23;;;;;;;1.85;1.10;;;25.40;94.70;;;;;;5012779;28;20064;-76
2022/08/09 11:33:23;;;;;;;4.78;1.20;;;26.40;92.50;;;;;;5028042;28;20492;-75
2022/08/09 11:35:57;;;;;;;2.20;0.90;;;27.60;85.80;;;;;;5027348;28;20056;-74
2022/08/09 11:38:32;;;;;;;5.43;1.50;;;29.10;80.80;;;;;;5015154;28;20110;-75
2022/08/09 11:41:27;;;;;;;1.30;0.90;;;30.50;74.80;;;;;;4996340;28;20032;-75
2022/08/09 11:43:54;;;;;;;3.00;1.23;;;31.30;69.50;;;;;;5032709;28;20029;-74
2022/08/09 11:46:21;;;;;;;25.15;14.00;;;31.50;65.60;;;;;;5029343;28;20511;-74
2022/08/09 11:49:10;;;;;;;15.18;7.75;;;30.50;66.80;;;;;;4998591;28;20021;-75
2022/08/09 11:51:59;;;;;;;8.40;3.92;;;30.20;66.80;;;;;;4946341;29;20599;-76
2022/08/09 11:54:25;;;;;;;2.40;1.63;;;29.80;65.60;;;;;;4932220;29;20151;-76
2022/08/09 11:56:50;;;;;;;4.30;2.03;;;29.60;65.20;;;;;;4945565;28;20118;-75
2022/08/09 11:59:28;;;;;;;2.20;1.65;;;29.40;66.50;;;;;;4935134;29;20499;-75
2022/08/09 12:01:57;;;;;;;3.20;1.35;;;29.20;67.90;;;;;;4946408;28;20158;-75
2022/08/09 12:04:24;;;;;;;2.10;1.20;;;28.80;68.50;;;;;;4948713;28;20370;-75
2022/08/09 12:06:53;;;;;;;44.40;39.72;;;29.00;67.40;;;;;;4961338;28;20176;-76
2022/08/09 12:09:26;;;;;;;64.50;57.78;;;29.40;66.70;;;;;;4950495;28;20130;-78
2022/08/09 12:11:56;;;;;;;7.90;5.55;;;29.90;66.60;;;;;;4961259;28;20087;-75
2022/08/09 12:14:29;;;;;;;2.40;1.20;;;29.40;63.70;;;;;;4933231;29;20042;-75
2022/08/09 12:16:55;;;;;;;2.65;1.00;;;28.70;64.80;;;;;;4948376;29;20035;-75
2022/08/09 12:19:30;;;;;;;2.50;1.40;;;28.30;66.60;;;;;;4930841;29;20031;-75
2022/08/09 12:22:04;;;;;;;2.58;1.35;;;28.00;67.70;;;;;;4931686;29;20043;-75
2022/08/09 12:24:29;;;;;;;1.52;1.10;;;28.10;67.90;;;;;;4932422;29;20036;-76
2022/08/09 12:26:57;;;;;;;1.92;1.10;;;27.80;67.80;;;;;;4929956;28;20031;-77
2022/08/09 12:29:25;;;;;;;1.85;0.90;;;27.70;67.50;;;;;;5003038;28;20469;-74
2022/08/09 12:32:10;;;;;;;2.15;1.33;;;27.40;67.90;;;;;;5019779;28;20030;-74
2022/08/09 12:34:38;;;;;;;2.08;1.02;;;26.90;70.70;;;;;;5014494;28;20033;-76
2022/08/09 12:37:04;;;;;;;4.53;1.80;;;26.60;72.40;;;;;;4993950;28;20489;-75
2022/08/09 12:39:30;;;;;;;3.00;0.95;;;26.60;74.30;;;;;;5028259;28;20040;-74
2022/08/09 12:42:11;;;;;;;5.53;1.10;;;27.20;71.40;;;;;;5015104;28;20029;-75
2022/08/09 12:44:38;;;;;;;6.55;1.40;;;28.70;67.00;;;;;;5014597;28;20029;-75
2022/08/09 12:47:05;;;;;;;2.85;1.00;;;29.50;66.30;;;;;;4998321;28;20026;-75
2022/08/09 12:49:35;;;;;;;2.10;1.33;;;29.80;64.20;;;;;;4997979;28;20386;-74
2022/08/09 12:52:01;;;;;;;3.60;1.00;;;30.40;64.00;;;;;;5020288;28;20025;-73
2022/08/09 12:54:27;;;;;;;2.17;1.10;;;30.60;65.30;;;;;;4999269;28;20044;-74
2022/08/09 12:56:53;;;;;;;1.58;1.05;;;31.00;63.50;;;;;;4997036;28;20026;-74